Time;durP1;ratioP1;P1;durP2;ratioP2;P2;SDS_P1;SDS_P2;PMS_P1;PMS_P2;Temp;Humidity;BMP_temperature;BMP_pressure;BME280_temperature;BME280_humidity;BME280_pressure;Samples;Min_cycle;Max_cycle;Signal;HPM_P1;HPM_P2
2023/12/28 09:13:59;;;;;;;11.10;7.65;;;;;;;;;;6200899;22;20244;31
2023/12/28 12:31:21;;;;;;;10.55;8.18;;;;;;;;;;6132678;22;1431166;-87
2023/12/28 12:33:47;;;;;;;11.38;8.23;;;;;;;;;;6195734;23;20013;-90
2023/12/28 12:36:13;;;;;;;10.15;8.32;;;;;;;;;;6195549;23;20027;-91
2023/12/28 12:38:38;;;;;;;10.30;8.27;;;;;;;;;;6195237;23;20408;-90
2023/12/28 12:41:04;;;;;;;10.65;8.80;;;;;;;;;;6195080;23;20431;-91
2023/12/28 12:43:29;;;;;;;10.70;8.82;;;;;;;;;;6195730;23;20001;-95
2023/12/28 12:45:55;;;;;;;11.20;8.15;;;;;;;;;;6195656;23;20005;-90
2023/12/28 17:08:51;;;;;;;7.03;6.33;;;;;;;;;;6158570;23;20017;-91
2023/12/28 17:11:17;;;;;;;7.65;5.85;;;;;;;;;;6186573;23;20246;-82
2023/12/28 17:13:43;;;;;;;7.93;5.90;;;;;;;;;;6187203;23;20013;-82
2023/12/28 17:16:09;;;;;;;7.90;6.15;;;;;;;;;;6186898;23;20024;-82
2023/12/28 17:18:34;;;;;;;9.93;7.80;;;;;;;;;;6185602;23;20013;-82
2023/12/28 17:21:00;;;;;;;8.65;6.60;;;;;;;;;;6186804;23;20008;-81
2023/12/28 17:23:33;;;;;;;8.13;6.18;;;;;;;;;;6186948;23;20024;-81
2023/12/28 17:26:09;;;;;;;9.07;6.50;;;;;;;;;;6186527;23;20033;-81
2023/12/28 17:28:45;;;;;;;7.68;6.28;;;;;;;;;;6186537;23;20443;-82
2023/12/28 17:31:11;;;;;;;8.65;5.90;;;;;;;;;;6186917;23;20023;-85
2023/12/28 17:33:39;;;;;;;11.80;6.63;;;;;;;;;;6186817;23;20369;-80
2023/12/28 17:36:05;;;;;;;9.48;7.13;;;;;;;;;;6186934;23;20020;-81
2023/12/28 17:38:31;;;;;;;11.93;7.68;;;;;;;;;;6186884;23;20081;-80
2023/12/28 17:40:56;;;;;;;12.43;8.15;;;;;;;;;;6187012;23;20025;-81
2023/12/28 17:43:42;;;;;;;10.20;6.57;;;;;;;;;;6186665;23;20016;-81
2023/12/28 17:46:21;;;;;;;9.43;6.78;;;;;;;;;;6185638;23;20005;-84
2023/12/28 17:48:52;;;;;;;8.33;6.40;;;;;;;;;;6187100;23;20016;-82
2023/12/28 17:51:17;;;;;;;6.63;5.72;;;;;;;;;;6186420;23;20227;-83
2023/12/28 17:53:44;;;;;;;7.47;6.00;;;;;;;;;;6186688;23;20048;-88
2023/12/28 17:56:13;;;;;;;7.90;5.95;;;;;;;;;;6187190;23;20455;-84
2023/12/28 17:58:38;;;;;;;12.52;9.80;;;;;;;;;;6186697;23;20455;-84
2023/12/28 18:01:04;;;;;;;13.95;11.25;;;;;;;;;;6186932;23;20005;-83
2023/12/28 18:03:29;;;;;;;23.92;16.85;;;;;;;;;;6186544;23;20001;-83
2023/12/28 18:05:55;;;;;;;15.27;10.90;;;;;;;;;;6186549;23;20005;-82
2023/12/28 18:08:21;;;;;;;9.65;7.78;;;;;;;;;;6185716;23;20080;-83
2023/12/28 18:10:47;;;;;;;10.50;9.13;;;;;;;;;;6186349;23;20429;-83
2023/12/28 18:13:12;;;;;;;10.77;8.50;;;;;;;;;;6186395;23;20019;-82
2023/12/28 18:15:37;;;;;;;10.77;8.00;;;;;;;;;;6186294;23;20440;-83
2023/12/28 18:18:03;;;;;;;13.35;8.45;;;;;;;;;;6186957;23;20040;-88
2023/12/28 18:20:28;;;;;;;12.23;9.27;;;;;;;;;;6186901;23;20008;-88
2023/12/28 18:22:54;;;;;;;11.80;7.82;;;;;;;;;;6187599;23;20409;-94
2023/12/28 18:25:19;;;;;;;12.00;7.45;;;;;;;;;;6188310;23;20001;-92
2023/12/28 18:27:45;;;;;;;10.90;7.07;;;;;;;;;;6185597;23;20000;-91
2023/12/28 18:30:10;;;;;;;12.88;7.45;;;;;;;;;;6187124;23;20005;-92
2023/12/28 18:32:36;;;;;;;11.13;7.38;;;;;;;;;;6187329;23;20080;-90
2023/12/28 18:35:02;;;;;;;11.57;8.13;;;;;;;;;;6187069;23;20016;-93
2023/12/28 18:37:27;;;;;;;12.02;7.90;;;;;;;;;;6187148;23;20093;-92
2023/12/28 18:39:53;;;;;;;12.10;8.55;;;;;;;;;;6187011;23;20384;-89
2023/12/28 18:42:20;;;;;;;11.27;8.23;;;;;;;;;;6187430;23;20056;-92
2023/12/28 18:44:46;;;;;;;7.22;6.22;;;;;;;;;;6187104;23;20035;-93
2023/12/28 18:47:12;;;;;;;7.47;6.22;;;;;;;;;;6187194;23;20072;-93
2023/12/28 18:49:37;;;;;;;9.77;7.22;;;;;;;;;;6186459;23;20043;-89
2023/12/28 18:52:04;;;;;;;11.43;7.25;;;;;;;;;;6188322;23;20001;-95
2023/12/28 18:54:30;;;;;;;9.70;6.95;;;;;;;;;;6187434;23;20432;-93
2023/12/28 18:56:55;;;;;;;11.25;8.82;;;;;;;;;;6186901;23;20056;-92
2023/12/28 18:59:20;;;;;;;12.60;8.15;;;;;;;;;;6185584;23;20035;-92
2023/12/28 19:01:46;;;;;;;11.57;8.70;;;;;;;;;;6185902;23;20363;-91
2023/12/28 19:04:12;;;;;;;12.02;8.05;;;;;;;;;;6187409;23;20001;-89
2023/12/28 19:06:38;;;;;;;14.40;8.80;;;;;;;;;;6187211;23;20039;-89
2023/12/28 19:09:05;;;;;;;11.05;8.27;;;;;;;;;;6187162;23;20012;-89
2023/12/28 19:11:31;;;;;;;10.68;7.70;;;;;;;;;;6187506;23;20005;-89
2023/12/28 19:13:56;;;;;;;11.70;8.43;;;;;;;;;;6185477;23;20013;-85
2023/12/28 19:16:23;;;;;;;12.75;8.57;;;;;;;;;;6186792;23;20056;-93
2023/12/28 19:18:49;;;;;;;12.43;7.93;;;;;;;;;;6188080;23;20035;-93
2023/12/28 19:21:16;;;;;;;12.73;8.27;;;;;;;;;;6187572;23;20035;-94
2023/12/28 19:23:41;;;;;;;11.23;7.78;;;;;;;;;;6187435;23;20035;-91
2023/12/28 19:26:06;;;;;;;10.57;7.47;;;;;;;;;;6187794;23;20001;-92
2023/12/28 19:28:32;;;;;;;14.50;8.38;;;;;;;;;;6186947;23;20008;-93
2023/12/28 19:30:57;;;;;;;16.17;9.52;;;;;;;;;;6187335;23;20040;-89
2023/12/28 19:33:24;;;;;;;13.10;9.48;;;;;;;;;;6187501;23;20412;-93
2023/12/28 19:35:51;;;;;;;11.95;9.20;;;;;;;;;;6187099;23;20527;-94
2023/12/28 19:38:16;;;;;;;12.35;9.07;;;;;;;;;;6186706;23;20420;-95
2023/12/28 19:40:42;;;;;;;12.00;9.15;;;;;;;;;;6187431;23;20005;-92
2023/12/28 19:43:07;;;;;;;16.30;9.25;;;;;;;;;;6185645;23;20067;-92
2023/12/28 19:45:33;;;;;;;13.13;9.20;;;;;;;;;;6187231;23;20329;-88
2023/12/28 19:47:58;;;;;;;12.38;8.10;;;;;;;;;;6186911;23;20032;-94
2023/12/28 19:50:24;;;;;;;12.82;9.05;;;;;;;;;;6186714;23;20388;-94
2023/12/28 19:52:49;;;;;;;11.95;9.15;;;;;;;;;;6187434;23;19998;-93
2023/12/28 19:55:15;;;;;;;9.88;8.00;;;;;;;;;;6187090;23;20078;-94
2023/12/28 19:57:41;;;;;;;11.60;8.43;;;;;;;;;;6187316;23;20080;-94
2023/12/28 20:00:10;;;;;;;13.85;9.88;;;;;;;;;;6186792;23;20001;-93
2023/12/28 20:02:36;;;;;;;14.20;9.63;;;;;;;;;;6187099;23;20005;-94
2023/12/28 20:05:02;;;;;;;12.80;9.85;;;;;;;;;;6186966;23;20309;-93
2023/12/28 20:07:27;;;;;;;11.30;9.07;;;;;;;;;;6187484;23;20356;-91
2023/12/28 20:09:53;;;;;;;10.70;8.27;;;;;;;;;;6186935;23;20088;-93
2023/12/28 20:12:18;;;;;;;12.10;9.15;;;;;;;;;;6188944;23;20028;-92
2023/12/28 20:14:44;;;;;;;13.77;9.93;;;;;;;;;;6188931;23;20020;-91
2023/12/28 20:17:10;;;;;;;15.15;9.48;;;;;;;;;;6189103;23;20028;-85
2023/12/28 20:19:35;;;;;;;13.45;9.90;;;;;;;;;;6188917;23;20368;-93
2023/12/28 20:22:01;;;;;;;11.27;9.40;;;;;;;;;;6189328;23;20001;-92
2023/12/28 20:24:28;;;;;;;14.32;10.52;;;;;;;;;;6188898;23;20008;-94
2023/12/28 20:26:56;;;;;;;12.82;9.98;;;;;;;;;;6187241;23;20329;-93
2023/12/28 20:29:21;;;;;;;13.98;9.93;;;;;;;;;;6188699;23;20012;-93
2023/12/28 20:31:47;;;;;;;12.15;9.43;;;;;;;;;;6189137;23;20001;-92
2023/12/28 20:34:12;;;;;;;10.50;9.20;;;;;;;;;;6188685;23;20005;-93
2023/12/28 20:36:37;;;;;;;15.77;10.40;;;;;;;;;;6188797;23;20001;-94
2023/12/28 20:39:03;;;;;;;12.77;8.98;;;;;;;;;;6188945;23;20404;-93
2023/12/28 20:41:28;;;;;;;12.63;9.20;;;;;;;;;;6188518;23;20009;-93
2023/12/28 20:43:55;;;;;;;12.13;9.38;;;;;;;;;;6188912;23;20012;-92
2023/12/28 20:46:21;;;;;;;16.25;10.55;;;;;;;;;;6188353;23;20005;-94
2023/12/28 20:48:48;;;;;;;12.52;8.90;;;;;;;;;;6187230;23;20314;-95
2023/12/28 20:51:14;;;;;;;14.18;8.98;;;;;;;;;;6190260;23;20412;-91
2023/12/28 20:53:41;;;;;;;13.15;8.90;;;;;;;;;;6189938;23;20001;-95
2023/12/28 20:56:07;;;;;;;12.77;9.13;;;;;;;;;;6194028;23;20119;-95
2023/12/28 20:58:32;;;;;;;9.52;7.88;;;;;;;;;;6197137;23;20001;-90
2023/12/28 21:00:58;;;;;;;15.63;10.25;;;;;;;;;;6193336;23;20001;-93
2023/12/28 21:03:24;;;;;;;15.32;10.75;;;;;;;;;;6197444;23;20005;-96
2023/12/28 21:05:49;;;;;;;16.67;11.15;;;;;;;;;;6202868;23;20012;-95
2023/12/28 21:08:15;;;;;;;37.20;20.30;;;;;;;;;;6191941;23;20085;-95
2023/12/28 21:10:40;;;;;;;18.05;11.43;;;;;;;;;;6192102;23;20017;-87
2023/12/28 21:13:10;;;;;;;15.93;12.23;;;;;;;;;;6189578;23;20001;-90
2023/12/28 21:15:37;;;;;;;17.20;11.95;;;;;;;;;;6189977;23;20325;-91
2023/12/28 21:18:02;;;;;;;18.25;13.07;;;;;;;;;;6188367;23;20016;-95
2023/12/28 21:20:28;;;;;;;20.95;12.95;;;;;;;;;;6189231;23;20005;-96
2023/12/28 21:22:54;;;;;;;17.33;12.95;;;;;;;;;;6191223;23;20005;-96
2023/12/28 21:25:19;;;;;;;17.92;12.07;;;;;;;;;;6192728;23;20063;-94
2023/12/28 21:27:45;;;;;;;15.93;11.77;;;;;;;;;;6192815;23;20005;-92
2023/12/28 21:30:13;;;;;;;16.50;11.23;;;;;;;;;;6199248;23;20008;-90
2023/12/28 21:32:40;;;;;;;16.13;10.80;;;;;;;;;;6204331;23;20004;-94
2023/12/28 21:35:06;;;;;;;13.35;10.02;;;;;;;;;;6205007;23;20077;-89
2023/12/28 21:37:32;;;;;;;12.75;9.90;;;;;;;;;;6207031;23;20008;-83
2023/12/28 21:40:09;;;;;;;13.52;9.80;;;;;;;;;;6194459;23;20012;-83
2023/12/28 21:42:39;;;;;;;12.52;10.18;;;;;;;;;;6194422;23;20024;-83
2023/12/28 21:45:06;;;;;;;14.45;9.73;;;;;;;;;;6188583;23;20005;-84
2023/12/28 21:47:31;;;;;;;13.10;9.93;;;;;;;;;;6187298;23;20328;-85
2023/12/28 21:49:57;;;;;;;9.90;7.65;;;;;;;;;;6187774;23;20005;-86
2023/12/28 21:52:23;;;;;;;13.23;7.43;;;;;;;;;;6187935;23;20439;-84
2023/12/28 21:54:51;;;;;;;11.27;7.80;;;;;;;;;;6186950;23;20008;-84
2023/12/28 21:57:16;;;;;;;11.80;8.70;;;;;;;;;;6185077;23;20084;-88
2023/12/28 21:59:42;;;;;;;11.18;8.15;;;;;;;;;;6186596;23;20036;-83
2023/12/28 22:02:07;;;;;;;12.82;8.77;;;;;;;;;;6186867;23;20028;-83
2023/12/28 22:04:32;;;;;;;12.18;9.10;;;;;;;;;;6186600;23;20011;-83
2023/12/28 22:06:58;;;;;;;12.23;9.43;;;;;;;;;;6186719;23;20012;-84
2023/12/28 22:09:23;;;;;;;12.98;9.30;;;;;;;;;;6186666;23;20021;-85
2023/12/28 22:11:49;;;;;;;11.52;8.45;;;;;;;;;;6185575;23;20012;-84
2023/12/28 22:14:16;;;;;;;12.63;9.43;;;;;;;;;;6186715;23;20008;-84
2023/12/28 22:16:41;;;;;;;12.95;9.50;;;;;;;;;;6186839;23;20013;-85
2023/12/28 22:19:07;;;;;;;11.70;9.32;;;;;;;;;;6186942;23;20365;-83
2023/12/28 22:21:32;;;;;;;13.82;9.52;;;;;;;;;;6186870;23;20012;-87
2023/12/28 22:23:58;;;;;;;10.43;8.70;;;;;;;;;;6186738;23;20005;-83
2023/12/28 22:26:23;;;;;;;13.93;9.13;;;;;;;;;;6186395;23;20005;-83
2023/12/28 22:28:50;;;;;;;13.60;9.77;;;;;;;;;;6186419;23;20008;-84
2023/12/28 22:31:15;;;;;;;10.95;9.40;;;;;;;;;;6186728;23;20005;-83
2023/12/28 22:33:41;;;;;;;12.23;8.95;;;;;;;;;;6184271;23;20402;-84
2023/12/28 22:36:06;;;;;;;12.32;8.52;;;;;;;;;;6186432;23;20001;-83
2023/12/28 22:38:32;;;;;;;11.25;8.50;;;;;;;;;;6186367;23;19993;-85
2023/12/28 22:40:59;;;;;;;10.45;7.82;;;;;;;;;;6186355;23;20005;-89
2023/12/28 22:43:24;;;;;;;13.55;8.43;;;;;;;;;;6186303;23;20005;-84
2023/12/28 22:45:50;;;;;;;13.88;8.63;;;;;;;;;;6186274;23;20063;-84
2023/12/28 22:48:19;;;;;;;12.10;8.32;;;;;;;;;;6186385;23;20004;-84
2023/12/28 22:50:45;;;;;;;12.10;9.27;;;;;;;;;;6186796;23;20029;-84
2023/12/28 22:53:11;;;;;;;10.60;7.82;;;;;;;;;;6186218;23;20004;-84
2023/12/28 22:55:38;;;;;;;15.05;10.18;;;;;;;;;;6186993;23;20502;-87
2023/12/28 22:58:03;;;;;;;17.27;13.25;;;;;;;;;;6187562;23;20068;-90
2023/12/28 23:00:34;;;;;;;31.70;22.58;;;;;;;;;;6181236;23;20024;-89
2023/12/28 23:03:07;;;;;;;15.73;11.02;;;;;;;;;;6161511;23;20044;-95
2023/12/28 23:05:33;;;;;;;13.60;9.70;;;;;;;;;;6188383;23;20005;-95
